Saint Anthony, Idaho
Current Conditions -  °F | °C
As of 9:53 PM on Wednesday 26 Nov 2014 (Local Time) from KRXE Reporting Station
Clear Clear  
Wind Chill: 38°   Ceiling: Unl
Heat Index: 42°   Visibility: 10mi
Dew Point: 31°   Wind: 7mph
Humidity: 65%   Direction: 200°SSW
Pressure: 30.26"   Gusts: NA
Location:  43.97°N, 111.68°W
Report Text: KRXE 270453Z AUTO 20006KT 10SM CLR 06/M01 A3026 RMK AO2 SLP254 T00561006
Loading
Personal Weather Stations






























Interactive Weather Map New forecast layout! Learn more

10-Day Weather Forecast

Advertisements
Track Severe Weather on mobile